sensor_id;sensor_type;location;lat;lon;timestamp;pressure;altitude;pressure_sealevel;temperature;humidity
76054;BME280;64752;48.870;9.082;2023-11-21T00:00:57;97391.22;;;7.46;100.00
76054;BME280;64752;48.870;9.082;2023-11-21T00:03:23;97384.22;;;7.49;100.00
76054;BME280;64752;48.870;9.082;2023-11-21T00:05:49;97386.59;;;7.56;100.00
76054;BME280;64752;48.870;9.082;2023-11-21T00:08:14;97382.13;;;7.61;100.00
76054;BME280;64752;48.870;9.082;2023-11-21T00:10:40;97382.84;;;7.64;100.00
76054;BME280;64752;48.870;9.082;2023-11-21T00:13:05;97386.19;;;7.68;100.00
76054;BME280;64752;48.870;9.082;2023-11-21T00:15:32;97378.31;;;7.72;100.00
76054;BME280;64752;48.870;9.082;2023-11-21T00:17:57;97376.50;;;7.75;100.00
76054;BME280;64752;48.870;9.082;2023-11-21T00:20:23;97382.50;;;7.75;100.00
76054;BME280;64752;48.870;9.082;2023-11-21T00:22:48;97377.38;;;7.73;100.00
76054;BME280;64752;48.870;9.082;2023-11-21T00:25:14;97379.13;;;7.73;100.00
76054;BME280;64752;48.870;9.082;2023-11-21T00:27:41;97378.13;;;7.77;100.00
76054;BME280;64752;48.870;9.082;2023-11-21T00:30:07;97370.47;;;7.76;100.00
76054;BME280;64752;48.870;9.082;2023-11-21T00:32:35;97372.19;;;7.75;100.00
76054;BME280;64752;48.870;9.082;2023-11-21T00:35:01;97379.88;;;7.77;100.00
76054;BME280;64752;48.870;9.082;2023-11-21T00:37:27;97379.00;;;7.78;100.00
76054;BME280;64752;48.870;9.082;2023-11-21T00:39:52;97371.16;;;7.79;100.00
76054;BME280;64752;48.870;9.082;2023-11-21T00:42:18;97368.66;;;7.78;100.00
76054;BME280;64752;48.870;9.082;2023-11-21T00:44:43;97371.13;;;7.81;100.00
76054;BME280;64752;48.870;9.082;2023-11-21T00:47:08;97365.78;;;7.87;100.00
76054;BME280;64752;48.870;9.082;2023-11-21T00:49:34;97367.38;;;7.89;100.00
76054;BME280;64752;48.870;9.082;2023-11-21T00:51:59;97372.41;;;7.94;100.00
76054;BME280;64752;48.870;9.082;2023-11-21T00:54:26;97377.66;;;7.91;100.00
76054;BME280;64752;48.870;9.082;2023-11-21T00:56:52;97376.75;;;7.92;100.00
76054;BME280;64752;48.870;9.082;2023-11-21T00:59:17;97372.59;;;7.88;100.00
76054;BME280;64752;48.870;9.082;2023-11-21T01:01:42;97374.31;;;7.89;100.00
76054;BME280;64752;48.870;9.082;2023-11-21T01:04:08;97374.31;;;7.89;100.00
76054;BME280;64752;48.870;9.082;2023-11-21T01:06:33;97375.31;;;7.85;100.00
76054;BME280;64752;48.870;9.082;2023-11-21T01:08:59;97377.72;;;7.89;100.00
76054;BME280;64752;48.870;9.082;2023-11-21T01:11:24;97375.81;;;7.95;100.00
76054;BME280;64752;48.870;9.082;2023-11-21T01:13:49;97370.66;;;7.95;100.00
76054;BME280;64752;48.870;9.082;2023-11-21T01:16:15;97371.50;;;7.95;100.00
76054;BME280;64752;48.870;9.082;2023-11-21T01:18:40;97368.91;;;7.95;100.00
76054;BME280;64752;48.870;9.082;2023-11-21T01:21:05;97373.47;;;7.88;100.00
76054;BME280;64752;48.870;9.082;2023-11-21T01:23:32;97370.03;;;7.88;100.00
76054;BME280;64752;48.870;9.082;2023-11-21T01:25:58;97375.22;;;7.86;100.00
76054;BME280;64752;48.870;9.082;2023-11-21T01:28:23;97377.81;;;7.86;100.00
76054;BME280;64752;48.870;9.082;2023-11-21T01:30:49;97375.22;;;7.86;100.00
76054;BME280;64752;48.870;9.082;2023-11-21T01:33:15;97367.56;;;7.85;100.00
76054;BME280;64752;48.870;9.082;2023-11-21T01:35:41;97371.88;;;7.84;100.00
76054;BME280;64752;48.870;9.082;2023-11-21T01:38:06;97367.63;;;7.83;100.00
76054;BME280;64752;48.870;9.082;2023-11-21T01:40:33;97365.13;;;7.80;100.00
76054;BME280;64752;48.870;9.082;2023-11-21T01:42:59;97376.97;;;7.86;100.00
76054;BME280;64752;48.870;9.082;2023-11-21T01:45:24;97371.91;;;7.83;100.00
76054;BME280;64752;48.870;9.082;2023-11-21T01:47:50;97371.06;;;7.82;100.00
76054;BME280;64752;48.870;9.082;2023-11-21T01:50:17;97370.03;;;7.88;100.00
76054;BME280;64752;48.870;9.082;2023-11-21T01:52:46;97364.06;;;7.86;100.00
76054;BME280;64752;48.870;9.082;2023-11-21T01:55:14;97366.81;;;7.81;100.00
76054;BME280;64752;48.870;9.082;2023-11-21T01:57:43;97368.75;;;7.75;100.00
76054;BME280;64752;48.870;9.082;2023-11-21T02:00:09;97369.59;;;7.75;100.00
76054;BME280;64752;48.870;9.082;2023-11-21T02:02:47;97372.00;;;7.81;100.00
76054;BME280;64752;48.870;9.082;2023-11-21T02:05:16;97366.59;;;7.87;100.00
76054;BME280;64752;48.870;9.082;2023-11-21T02:07:47;97373.47;;;7.88;100.00
76054;BME280;64752;48.870;9.082;2023-11-21T02:10:17;97370.75;;;7.91;100.00
76054;BME280;64752;48.870;9.082;2023-11-21T02:12:48;97369.09;;;7.90;100.00
76054;BME280;64752;48.870;9.082;2023-11-21T02:15:15;97364.38;;;8.02;100.00
76054;BME280;64752;48.870;9.082;2023-11-21T02:17:54;97368.81;;;7.98;100.00
76054;BME280;64752;48.870;9.082;2023-11-21T02:20:22;97366.06;;;8.03;100.00
76054;BME280;64752;48.870;9.082;2023-11-21T02:22:57;97366.28;;;7.97;100.00
76054;BME280;64752;48.870;9.082;2023-11-21T02:25:33;97367.84;;;8.01;100.00
76054;BME280;64752;48.870;9.082;2023-11-21T02:28:00;97362.59;;;8.04;100.00
76054;BME280;64752;48.870;9.082;2023-11-21T02:30:26;97359.19;;;8.03;100.00
76054;BME280;64752;48.870;9.082;2023-11-21T02:32:53;97355.88;;;8.00;100.00
76054;BME280;64752;48.870;9.082;2023-11-21T02:35:19;97358.53;;;7.97;100.00
76054;BME280;64752;48.870;9.082;2023-11-21T02:37:47;97363.75;;;7.95;100.00
76054;BME280;64752;48.870;9.082;2023-11-21T02:40:12;97364.03;;;7.87;100.00
76054;BME280;64752;48.870;9.082;2023-11-21T02:42:40;97361.22;;;7.94;100.00
76054;BME280;64752;48.870;9.082;2023-11-21T02:45:07;97359.50;;;7.94;100.00
76054;BME280;64752;48.870;9.082;2023-11-21T02:47:33;97359.38;;;7.97;100.00
76054;BME280;64752;48.870;9.082;2023-11-21T02:49:59;97354.13;;;8.00;100.00
76054;BME280;64752;48.870;9.082;2023-11-21T02:52:24;97352.63;;;7.93;100.00
76054;BME280;64752;48.870;9.082;2023-11-21T02:54:50;97354.44;;;7.91;100.00
76054;BME280;64752;48.870;9.082;2023-11-21T02:57:15;97355.31;;;7.90;100.00
76054;BME280;64752;48.870;9.082;2023-11-21T02:59:40;97351.81;;;7.93;100.00
76054;BME280;64752;48.870;9.082;2023-11-21T03:02:06;97346.75;;;7.89;100.00
76054;BME280;64752;48.870;9.082;2023-11-21T03:04:34;97356.22;;;7.89;100.00
76054;BME280;64752;48.870;9.082;2023-11-21T03:07:00;97354.59;;;7.86;100.00
76054;BME280;64752;48.870;9.082;2023-11-21T03:09:25;97343.31;;;7.89;100.00
76054;BME280;64752;48.870;9.082;2023-11-21T03:11:52;97356.28;;;7.87;100.00
76054;BME280;64752;48.870;9.082;2023-11-21T03:14:17;97353.00;;;7.82;100.00
76054;BME280;64752;48.870;9.082;2023-11-21T03:16:43;97356.28;;;7.87;100.00
76054;BME280;64752;48.870;9.082;2023-11-21T03:19:10;97357.13;;;7.88;100.00
76054;BME280;64752;48.870;9.082;2023-11-21T03:21:36;97364.91;;;7.86;100.00
76054;BME280;64752;48.870;9.082;2023-11-21T03:24:02;97363.06;;;7.90;100.00
76054;BME280;64752;48.870;9.082;2023-11-21T03:26:27;97360.59;;;7.87;100.00
76054;BME280;64752;48.870;9.082;2023-11-21T03:28:53;97356.38;;;7.84;100.00
76054;BME280;64752;48.870;9.082;2023-11-21T03:31:19;97363.97;;;7.89;100.00
76054;BME280;64752;48.870;9.082;2023-11-21T03:33:45;97362.22;;;7.89;100.00
76054;BME280;64752;48.870;9.082;2023-11-21T03:36:11;97361.53;;;7.84;100.00
76054;BME280;64752;48.870;9.082;2023-11-21T03:38:36;97367.56;;;7.85;100.00
76054;BME280;64752;48.870;9.082;2023-11-21T03:41:03;97365.88;;;7.84;100.00
76054;BME280;64752;48.870;9.082;2023-11-21T03:43:29;97376.03;;;7.88;100.00
76054;BME280;64752;48.870;9.082;2023-11-21T03:45:54;97379.41;;;7.90;100.00
76054;BME280;64752;48.870;9.082;2023-11-21T03:48:19;97375.97;;;7.90;100.00
76054;BME280;64752;48.870;9.082;2023-11-21T03:50:45;97365.91;;;7.82;100.00
76054;BME280;64752;48.870;9.082;2023-11-21T03:53:12;97373.03;;;7.76;100.00
76054;BME280;64752;48.870;9.082;2023-11-21T03:55:37;97374.72;;;7.77;100.00
76054;BME280;64752;48.870;9.082;2023-11-21T03:58:03;97377.34;;;7.75;100.00
76054;BME280;64752;48.870;9.082;2023-11-21T04:00:28;97379.03;;;7.76;100.00
76054;BME280;64752;48.870;9.082;2023-11-21T04:02:54;97376.50;;;7.75;100.00
76054;BME280;64752;48.870;9.082;2023-11-21T04:05:22;97380.72;;;7.77;100.00
76054;BME280;64752;48.870;9.082;2023-11-21T04:07:51;97385.22;;;7.72;100.00
76054;BME280;64752;48.870;9.082;2023-11-21T04:10:20;97384.25;;;7.75;100.00
76054;BME280;64752;48.870;9.082;2023-11-21T04:12:46;97383.50;;;7.71;100.00
76054;BME280;64752;48.870;9.082;2023-11-21T04:15:12;97383.81;;;7.62;100.00
76054;BME280;64752;48.870;9.082;2023-11-21T04:17:39;97379.63;;;7.59;100.00
76054;BME280;64752;48.870;9.082;2023-11-21T04:20:07;97380.59;;;7.55;100.00
76054;BME280;64752;48.870;9.082;2023-11-21T04:22:36;97385.88;;;7.52;100.00
76054;BME280;64752;48.870;9.082;2023-11-21T04:25:05;97391.03;;;7.52;100.00
76054;BME280;64752;48.870;9.082;2023-11-21T04:27:30;97388.53;;;7.49;100.00
76054;BME280;64752;48.870;9.082;2023-11-21T04:29:59;97391.06;;;7.50;100.00
76054;BME280;64752;48.870;9.082;2023-11-21T04:32:30;97392.69;;;7.53;100.00
76054;BME280;64752;48.870;9.082;2023-11-21T04:34:59;97393.59;;;7.52;100.00
76054;BME280;64752;48.870;9.082;2023-11-21T04:37:24;97387.75;;;7.47;100.00
76054;BME280;64752;48.870;9.082;2023-11-21T04:39:50;97391.16;;;7.47;100.00
76054;BME280;64752;48.870;9.082;2023-11-21T04:42:15;97398.06;;;7.47;100.00
76054;BME280;64752;48.870;9.082;2023-11-21T04:44:40;97387.00;;;7.43;100.00
76054;BME280;64752;48.870;9.082;2023-11-21T04:47:06;97391.31;;;7.43;100.00
76054;BME280;64752;48.870;9.082;2023-11-21T04:49:35;97384.63;;;7.37;100.00
76054;BME280;64752;48.870;9.082;2023-11-21T04:52:00;97387.25;;;7.36;100.00
76054;BME280;64752;48.870;9.082;2023-11-21T04:54:26;97382.97;;;7.34;100.00
76054;BME280;64752;48.870;9.082;2023-11-21T04:56:52;97385.25;;;7.44;100.00
76054;BME280;64752;48.870;9.082;2023-11-21T04:59:18;97387.06;;;7.42;100.00
76054;BME280;64752;48.870;9.082;2023-11-21T05:01:43;97389.84;;;7.36;100.00
76054;BME280;64752;48.870;9.082;2023-11-21T05:04:09;97386.50;;;7.32;100.00
76054;BME280;64752;48.870;9.082;2023-11-21T05:06:35;97386.66;;;7.27;100.00
76054;BME280;64752;48.870;9.082;2023-11-21T05:09:00;97381.53;;;7.26;100.00
76054;BME280;64752;48.870;9.082;2023-11-21T05:11:28;97388.47;;;7.24;100.00
76054;BME280;64752;48.870;9.082;2023-11-21T05:14:03;97393.78;;;7.19;100.00
76054;BME280;64752;48.870;9.082;2023-11-21T05:16:38;97391.59;;;7.07;100.00
76054;BME280;64752;48.870;9.082;2023-11-21T05:19:06;97395.25;;;7.00;100.00
76054;BME280;64752;48.870;9.082;2023-11-21T05:26:50;97398.56;;;7.03;100.00
76054;BME280;64752;48.870;9.082;2023-11-21T05:29:16;97405.47;;;7.03;100.00
76054;BME280;64752;48.870;9.082;2023-11-21T05:34:37;97416.56;;;7.05;100.00
76054;BME280;64752;48.870;9.082;2023-11-21T05:40:38;97426.94;;;7.03;100.00
76054;BME280;64752;48.870;9.082;2023-11-21T05:43:31;97429.06;;;7.19;100.00
76054;BME280;64752;48.870;9.082;2023-11-21T05:46:43;97428.34;;;7.13;100.00
76054;BME280;64752;48.870;9.082;2023-11-21T05:49:14;97429.97;;;7.16;100.00
76054;BME280;64752;48.870;9.082;2023-11-21T05:51:58;97426.47;;;7.19;100.00
76054;BME280;64752;48.870;9.082;2023-11-21T05:54:32;97430.72;;;7.20;100.00
76054;BME280;64752;48.870;9.082;2023-11-21T05:57:14;97444.25;;;7.28;100.00
76054;BME280;64752;48.870;9.082;2023-11-21T05:59:39;97438.22;;;7.27;100.00
76054;BME280;64752;48.870;9.082;2023-11-21T06:02:07;97436.63;;;7.23;100.00
76054;BME280;64752;48.870;9.082;2023-11-21T06:04:35;97439.22;;;7.23;100.00
76054;BME280;64752;48.870;9.082;2023-11-21T06:07:22;97442.00;;;7.17;100.00
76054;BME280;64752;48.870;9.082;2023-11-21T06:23:51;97461.28;;;7.04;100.00
76054;BME280;64752;48.870;9.082;2023-11-21T06:26:23;97459.88;;;6.93;100.00
76054;BME280;64752;48.870;9.082;2023-11-21T06:28:49;97456.59;;;6.88;100.00
76054;BME280;64752;48.870;9.082;2023-11-21T06:31:23;97455.78;;;6.86;100.00
76054;BME280;64752;48.870;9.082;2023-11-21T06:33:59;97459.38;;;6.81;100.00
76054;BME280;64752;48.870;9.082;2023-11-21T06:39:25;97466.66;;;6.66;100.00
76054;BME280;64752;48.870;9.082;2023-11-21T06:41:50;97468.28;;;6.69;100.00
76054;BME280;64752;48.870;9.082;2023-11-21T06:44:15;97473.34;;;6.73;100.00
76054;BME280;64752;48.870;9.082;2023-11-21T06:46:41;97485.38;;;6.73;100.00
76054;BME280;64752;48.870;9.082;2023-11-21T06:49:13;97482.03;;;6.69;100.00
76054;BME280;64752;48.870;9.082;2023-11-21T06:51:39;97488.91;;;6.69;100.00
76054;BME280;64752;48.870;9.082;2023-11-21T06:54:08;97482.72;;;6.74;100.00
76054;BME280;64752;48.870;9.082;2023-11-21T07:07:42;97504.06;;;6.80;100.00
76054;BME280;64752;48.870;9.082;2023-11-21T07:10:29;97510.47;;;6.96;100.00
76054;BME280;64752;48.870;9.082;2023-11-21T07:19:32;97506.50;;;7.16;100.00
76054;BME280;64752;48.870;9.082;2023-11-21T07:22:09;97519.22;;;7.20;100.00
76054;BME280;64752;48.870;9.082;2023-11-21T07:24:36;97527.19;;;7.12;100.00
76054;BME280;64752;48.870;9.082;2023-11-21T07:27:11;97526.41;;;7.10;100.00
76054;BME280;64752;48.870;9.082;2023-11-21T07:29:56;97537.28;;;7.20;100.00
76054;BME280;64752;48.870;9.082;2023-11-21T07:32:25;97537.00;;;7.29;100.00
76054;BME280;64752;48.870;9.082;2023-11-21T07:38:33;97540.00;;;7.45;100.00
76054;BME280;64752;48.870;9.082;2023-11-21T07:41:08;97540.50;;;7.57;100.00
76054;BME280;64752;48.870;9.082;2023-11-21T07:43:46;97546.00;;;7.74;100.00
76054;BME280;64752;48.870;9.082;2023-11-21T07:46:23;97554.63;;;7.73;100.00
76054;BME280;64752;48.870;9.082;2023-11-21T07:49:09;97548.75;;;7.96;100.00
76054;BME280;64752;48.870;9.082;2023-11-21T07:51:40;97553.63;;;8.05;100.00
76054;BME280;64752;48.870;9.082;2023-11-21T07:54:08;97557.97;;;8.30;100.00
76054;BME280;64752;48.870;9.082;2023-11-21T07:56:39;97555.13;;;8.38;100.00
76054;BME280;64752;48.870;9.082;2023-11-21T07:59:17;97563.59;;;8.43;100.00
76054;BME280;64752;48.870;9.082;2023-11-21T08:02:16;97550.91;;;8.35;100.00
76054;BME280;64752;48.870;9.082;2023-11-21T08:04:43;97555.84;;;8.41;100.00
76054;BME280;64752;48.870;9.082;2023-11-21T08:07:09;97560.78;;;8.49;100.00
76054;BME280;64752;48.870;9.082;2023-11-21T08:09:36;97563.50;;;8.46;100.00
76054;BME280;64752;48.870;9.082;2023-11-21T08:12:02;97559.13;;;8.48;100.00
76054;BME280;64752;48.870;9.082;2023-11-21T08:14:27;97565.00;;;8.53;100.00
76054;BME280;64752;48.870;9.082;2023-11-21T08:16:53;97561.84;;;8.43;100.00
76054;BME280;64752;48.870;9.082;2023-11-21T08:19:22;97563.34;;;8.51;100.00
76054;BME280;64752;48.870;9.082;2023-11-21T08:21:50;97574.97;;;8.64;100.00
76054;BME280;64752;48.870;9.082;2023-11-21T08:24:15;97566.81;;;8.49;100.00
76054;BME280;64752;48.870;9.082;2023-11-21T08:26:41;97569.84;;;8.62;100.00
76054;BME280;64752;48.870;9.082;2023-11-21T08:29:06;97573.78;;;8.73;100.00
76054;BME280;64752;48.870;9.082;2023-11-21T08:31:35;97572.09;;;8.72;100.00
76054;BME280;64752;48.870;9.082;2023-11-21T08:34:01;97579.25;;;8.63;100.00
76054;BME280;64752;48.870;9.082;2023-11-21T08:36:27;97578.56;;;8.58;100.00
76054;BME280;64752;48.870;9.082;2023-11-21T08:38:53;97574.00;;;8.66;100.00
76054;BME280;64752;48.870;9.082;2023-11-21T08:41:18;97582.31;;;8.75;100.00
76054;BME280;64752;48.870;9.082;2023-11-21T08:43:48;97577.22;;;8.73;100.00
76054;BME280;64752;48.870;9.082;2023-11-21T08:46:14;97579.06;;;8.70;100.00
76054;BME280;64752;48.870;9.082;2023-11-21T08:48:40;97587.75;;;8.67;100.00
76054;BME280;64752;48.870;9.082;2023-11-21T08:51:06;97590.81;;;8.53;100.00
76054;BME280;64752;48.870;9.082;2023-11-21T08:53:31;97589.97;;;8.53;100.00
76054;BME280;64752;48.870;9.082;2023-11-21T08:55:58;97589.88;;;8.56;100.00
76054;BME280;64752;48.870;9.082;2023-11-21T08:58:23;97591.50;;;8.58;100.00
76054;BME280;64752;48.870;9.082;2023-11-21T09:00:49;97603.31;;;8.65;100.00
76054;BME280;64752;48.870;9.082;2023-11-21T09:03:14;97593.09;;;8.62;100.00
76054;BME280;64752;48.870;9.082;2023-11-21T09:05:40;97601.63;;;8.64;100.00
76054;BME280;64752;48.870;9.082;2023-11-21T09:08:06;97603.09;;;8.46;100.00
76054;BME280;64752;48.870;9.082;2023-11-21T09:10:33;97600.00;;;8.62;100.00
76054;BME280;64752;48.870;9.082;2023-11-21T09:13:01;97605.22;;;8.60;100.00
76054;BME280;64752;48.870;9.082;2023-11-21T09:15:27;97598.28;;;8.62;100.00
76054;BME280;64752;48.870;9.082;2023-11-21T09:17:52;97606.72;;;8.67;100.00
76054;BME280;64752;48.870;9.082;2023-11-21T09:20:18;97613.03;;;8.59;100.00
76054;BME280;64752;48.870;9.082;2023-11-21T09:22:48;97616.41;;;8.61;100.00
76054;BME280;64752;48.870;9.082;2023-11-21T09:25:14;97618.38;;;8.53;100.00
76054;BME280;64752;48.870;9.082;2023-11-21T09:27:41;97618.88;;;8.37;100.00
76054;BME280;64752;48.870;9.082;2023-11-21T09:30:11;97624.78;;;8.42;100.00
76054;BME280;64752;48.870;9.082;2023-11-21T09:32:39;97624.81;;;8.67;100.00
76054;BME280;64752;48.870;9.082;2023-11-21T09:35:05;97633.81;;;8.56;100.00
76054;BME280;64752;48.870;9.082;2023-11-21T09:37:33;97632.50;;;8.69;100.00
76054;BME280;64752;48.870;9.082;2023-11-21T09:39:59;97638.75;;;8.62;100.00
76054;BME280;64752;48.870;9.082;2023-11-21T09:42:39;97633.53;;;8.63;100.00
76054;BME280;64752;48.870;9.082;2023-11-21T09:47:52;97642.66;;;8.75;100.00
76054;BME280;64752;48.870;9.082;2023-11-21T09:50:19;97645.59;;;8.90;100.00
76054;BME280;64752;48.870;9.082;2023-11-21T09:55:34;97638.25;;;8.77;100.00
76054;BME280;64752;48.870;9.082;2023-11-21T09:58:02;97639.56;;;8.89;100.00
76054;BME280;64752;48.870;9.082;2023-11-21T10:00:30;97648.72;;;8.99;100.00
76054;BME280;64752;48.870;9.082;2023-11-21T10:02:58;97643.50;;;9.01;100.00
76054;BME280;64752;48.870;9.082;2023-11-21T10:05:24;97653.81;;;9.26;100.00
76054;BME280;64752;48.870;9.082;2023-11-21T10:07:50;97645.63;;;9.13;100.00
76054;BME280;64752;48.870;9.082;2023-11-21T10:10:18;97647.09;;;9.20;100.00
76054;BME280;64752;48.870;9.082;2023-11-21T10:12:49;97647.31;;;9.39;100.00
76054;BME280;64752;48.870;9.082;2023-11-21T10:15:21;97641.56;;;9.31;100.00
76054;BME280;64752;48.870;9.082;2023-11-21T10:17:48;97644.44;;;9.47;100.00
76054;BME280;64752;48.870;9.082;2023-11-21T10:20:14;97641.63;;;9.99;100.00
76054;BME280;64752;48.870;9.082;2023-11-21T10:22:41;97641.84;;;10.38;100.00
76054;BME280;64752;48.870;9.082;2023-11-21T10:25:08;97639.50;;;10.32;100.00
76054;BME280;64752;48.870;9.082;2023-11-21T10:27:34;97638.56;;;11.17;100.00
76054;BME280;64752;48.870;9.082;2023-11-21T10:30:02;97635.84;;;11.20;100.00
76054;BME280;64752;48.870;9.082;2023-11-21T10:32:28;97643.97;;;10.92;100.00
76054;BME280;64752;48.870;9.082;2023-11-21T10:34:57;97640.13;;;10.80;100.00
76054;BME280;64752;48.870;9.082;2023-11-21T10:37:25;97647.03;;;10.38;100.00
76054;BME280;64752;48.870;9.082;2023-11-21T10:39:50;97653.75;;;10.85;100.00
76054;BME280;64752;48.870;9.082;2023-11-21T10:42:17;97646.66;;;10.48;100.00
76054;BME280;64752;48.870;9.082;2023-11-21T10:44:43;97657.50;;;10.78;100.00
76054;BME280;64752;48.870;9.082;2023-11-21T10:47:11;97649.34;;;11.08;100.00
76054;BME280;64752;48.870;9.082;2023-11-21T10:49:37;97655.47;;;11.07;100.00
76054;BME280;64752;48.870;9.082;2023-11-21T10:52:03;97645.59;;;10.31;100.00
76054;BME280;64752;48.870;9.082;2023-11-21T10:54:29;97649.94;;;10.73;100.00
76054;BME280;64752;48.870;9.082;2023-11-21T10:56:59;97648.69;;;11.03;100.00
76054;BME280;64752;48.870;9.082;2023-11-21T10:59:29;97640.97;;;10.80;100.00
76054;BME280;64752;48.870;9.082;2023-11-21T11:01:57;97643.97;;;10.92;100.00
76054;BME280;64752;48.870;9.082;2023-11-21T11:04:25;97646.56;;;11.12;100.00
76054;BME280;64752;48.870;9.082;2023-11-21T11:06:57;97643.59;;;11.60;100.00
76054;BME280;64752;48.870;9.082;2023-11-21T11:09:27;97638.50;;;11.77;100.00
76054;BME280;64752;48.870;9.082;2023-11-21T11:11:52;97651.09;;;11.47;100.00
76054;BME280;64752;48.870;9.082;2023-11-21T11:14:19;97645.66;;;11.53;100.00
76054;BME280;64752;48.870;9.082;2023-11-21T11:16:45;97640.69;;;11.28;100.00
76054;BME280;64752;48.870;9.082;2023-11-21T11:19:11;97644.00;;;11.31;100.00
76054;BME280;64752;48.870;9.082;2023-11-21T11:21:55;97647.81;;;12.73;100.00
76054;BME280;64752;48.870;9.082;2023-11-21T11:27:43;97647.94;;;13.73;90.82
76054;BME280;64752;48.870;9.082;2023-11-21T11:32:55;97651.34;;;13.58;91.39
76054;BME280;64752;48.870;9.082;2023-11-21T11:35:34;97652.34;;;13.22;95.31
76054;BME280;64752;48.870;9.082;2023-11-21T11:38:03;97654.50;;;12.96;97.16
76054;BME280;64752;48.870;9.082;2023-11-21T11:40:39;97651.81;;;12.63;100.00
76054;BME280;64752;48.870;9.082;2023-11-21T11:43:06;97654.69;;;12.03;100.00
76054;BME280;64752;48.870;9.082;2023-11-21T11:45:33;97661.41;;;11.09;100.00
76054;BME280;64752;48.870;9.082;2023-11-21T11:48:00;97662.31;;;10.67;100.00
76054;BME280;64752;48.870;9.082;2023-11-21T11:50:29;97663.38;;;10.40;100.00
76054;BME280;64752;48.870;9.082;2023-11-21T11:52:57;97661.97;;;10.54;100.00
76054;BME280;64752;48.870;9.082;2023-11-21T11:55:36;97663.00;;;10.50;100.00
76054;BME280;64752;48.870;9.082;2023-11-21T11:58:05;97663.84;;;10.50;100.00
76054;BME280;64752;48.870;9.082;2023-11-21T12:00:35;97660.22;;;10.32;100.00
76054;BME280;64752;48.870;9.082;2023-11-21T12:03:04;97652.50;;;10.31;100.00
76054;BME280;64752;48.870;9.082;2023-11-21T12:05:32;97651.91;;;10.46;100.00
76054;BME280;64752;48.870;9.082;2023-11-21T12:08:02;97660.94;;;10.58;100.00
76054;BME280;64752;48.870;9.082;2023-11-21T12:10:31;97662.81;;;10.75;100.00
76054;BME280;64752;48.870;9.082;2023-11-21T12:12:58;97663.25;;;10.64;100.00
76054;BME280;64752;48.870;9.082;2023-11-21T12:15:24;97668.69;;;10.58;100.00
76054;BME280;64752;48.870;9.082;2023-11-21T12:17:51;97671.50;;;10.53;100.00
76054;BME280;64752;48.870;9.082;2023-11-21T12:20:24;97675.22;;;10.68;100.00
76054;BME280;64752;48.870;9.082;2023-11-21T12:22:51;97667.59;;;10.64;100.00
76054;BME280;64752;48.870;9.082;2023-11-21T12:25:18;97677.66;;;10.71;100.00
76054;BME280;64752;48.870;9.082;2023-11-21T12:27:46;97671.63;;;11.53;100.00
76054;BME280;64752;48.870;9.082;2023-11-21T12:30:15;97668.69;;;12.18;100.00
76054;BME280;64752;48.870;9.082;2023-11-21T12:32:41;97672.53;;;12.99;100.00
76054;BME280;64752;48.870;9.082;2023-11-21T12:35:13;97670.03;;;12.80;100.00
76054;BME280;64752;48.870;9.082;2023-11-21T12:37:40;97668.78;;;12.70;100.00
76054;BME280;64752;48.870;9.082;2023-11-21T12:40:06;97670.25;;;12.03;100.00
76054;BME280;64752;48.870;9.082;2023-11-21T12:42:48;97670.97;;;11.67;100.00
76054;BME280;64752;48.870;9.082;2023-11-21T12:47:41;97691.28;;;9.87;100.00
76054;BME280;64752;48.870;9.082;2023-11-21T12:50:07;97700.19;;;9.79;100.00
76054;BME280;64752;48.870;9.082;2023-11-21T12:52:42;97701.25;;;9.50;100.00
76054;BME280;64752;48.870;9.082;2023-11-21T12:55:22;97695.75;;;9.36;100.00
76054;BME280;64752;48.870;9.082;2023-11-21T12:57:54;97696.22;;;9.22;100.00
76054;BME280;64752;48.870;9.082;2023-11-21T13:00:27;97694.25;;;9.29;100.00
76054;BME280;64752;48.870;9.082;2023-11-21T13:02:57;97706.13;;;9.09;100.00
76054;BME280;64752;48.870;9.082;2023-11-21T13:05:32;97708.25;;;8.98;100.00
76054;BME280;64752;48.870;9.082;2023-11-21T13:07:59;97705.75;;;8.95;100.00
76054;BME280;64752;48.870;9.082;2023-11-21T13:10:26;97704.88;;;8.96;100.00
76054;BME280;64752;48.870;9.082;2023-11-21T13:12:59;97716.69;;;9.03;100.00
76054;BME280;64752;48.870;9.082;2023-11-21T13:15:25;97714.16;;;9.01;100.00
76054;BME280;64752;48.870;9.082;2023-11-21T13:17:51;97711.56;;;9.01;100.00
76054;BME280;64752;48.870;9.082;2023-11-21T13:20:18;97714.19;;;9.00;100.00
76054;BME280;64752;48.870;9.082;2023-11-21T13:22:58;97718.22;;;9.09;100.00
76054;BME280;64752;48.870;9.082;2023-11-21T13:25:28;97721.38;;;9.17;100.00
76054;BME280;64752;48.870;9.082;2023-11-21T13:27:57;97724.84;;;9.17;100.00
76054;BME280;64752;48.870;9.082;2023-11-21T13:30:24;97723.72;;;9.24;100.00
76054;BME280;64752;48.870;9.082;2023-11-21T13:32:59;97731.69;;;9.18;100.00
76054;BME280;64752;48.870;9.082;2023-11-21T13:35:31;97727.91;;;9.29;100.00
76054;BME280;64752;48.870;9.082;2023-11-21T13:38:12;97729.69;;;9.26;100.00
76054;BME280;64752;48.870;9.082;2023-11-21T13:40:39;97734.78;;;9.28;100.00
76054;BME280;64752;48.870;9.082;2023-11-21T13:43:12;97729.88;;;9.20;100.00
76054;BME280;64752;48.870;9.082;2023-11-21T13:45:38;97737.56;;;9.23;100.00
76054;BME280;64752;48.870;9.082;2023-11-21T13:48:08;97749.06;;;9.40;100.00
76054;BME280;64752;48.870;9.082;2023-11-21T13:50:38;97746.75;;;9.32;100.00
76054;BME280;64752;48.870;9.082;2023-11-21T13:53:04;97751.66;;;9.40;100.00
76054;BME280;64752;48.870;9.082;2023-11-21T13:55:46;97753.09;;;9.49;100.00
76054;BME280;64752;48.870;9.082;2023-11-21T13:58:13;97749.84;;;9.42;100.00
76054;BME280;64752;48.870;9.082;2023-11-21T14:00:44;97751.75;;;9.37;100.00
76054;BME280;64752;48.870;9.082;2023-11-21T14:03:12;97758.94;;;9.54;100.00
76054;BME280;64752;48.870;9.082;2023-11-21T14:05:58;97755.34;;;9.58;100.00
76054;BME280;64752;48.870;9.082;2023-11-21T14:08:26;97757.06;;;9.57;100.00